Time;durP1;ratioP1;P1;durP2;ratioP2;P2;SDS_P1;SDS_P2;PMS_P1;PMS_P2;Temp;Humidity;BMP_temperature;BMP_pressure;BME280_temperature;BME280_humidity;BME280_pressure;Samples;Min_cycle;Max_cycle;Signal;HPM_P1;HPM_P2
2021/11/22 00:01:07;;;;;;;2.25;1.75;;;6.80;99.90;;;5.89;100.00;101367.63;4105088;28;20031;-82
2021/11/22 00:03:08;;;;;;;3.00;1.90;;;6.70;99.90;;;5.93;100.00;101373.50;4103981;28;20491;-83
2021/11/22 00:05:09;;;;;;;2.17;1.73;;;6.80;99.90;;;5.95;100.00;101377.66;4105187;28;20054;-83
2021/11/22 00:07:15;;;;;;;2.10;1.58;;;6.80;99.90;;;5.99;100.00;101379.13;4105123;28;20031;-83
2021/11/22 00:09:16;;;;;;;3.67;1.77;;;6.90;99.90;;;5.97;100.00;101375.75;4103738;29;20037;-83
2021/11/22 00:11:17;;;;;;;1.60;1.50;;;6.80;99.90;;;5.89;100.00;101372.88;4088012;29;20027;-83
2021/11/22 00:13:19;;;;;;;2.67;1.60;;;6.80;99.90;;;6.05;100.00;101378.69;4105053;28;20034;-83
2021/11/22 00:15:20;;;;;;;3.67;1.55;;;6.80;99.90;;;6.05;100.00;101377.84;4103774;29;20027;-84
2021/11/22 00:17:21;;;;;;;2.55;1.70;;;6.80;99.90;;;6.00;100.00;101374.72;4087808;29;20126;-83
2021/11/22 00:19:22;;;;;;;4.00;1.98;;;6.90;99.90;;;6.03;100.00;101380.56;4105036;29;20063;-84
2021/11/22 00:21:24;;;;;;;2.10;1.90;;;6.90;99.90;;;6.07;100.00;101378.56;4104767;28;20062;-83
2021/11/22 00:23:25;;;;;;;2.55;1.73;;;6.90;99.90;;;6.12;100.00;101382.50;4103510;29;20115;-83
2021/11/22 00:25:26;;;;;;;3.78;1.60;;;6.90;99.90;;;6.12;100.00;101385.13;4104837;28;20042;-82
2021/11/22 00:27:27;;;;;;;3.35;2.03;;;7.00;99.90;;;6.01;100.00;101376.38;4103616;28;20521;-83
2021/11/22 00:29:28;;;;;;;5.10;2.03;;;6.90;99.90;;;6.15;100.00;101389.31;4103649;29;20039;-84
2021/11/22 00:31:29;;;;;;;1.83;1.67;;;6.90;99.90;;;6.07;100.00;101379.41;4087697;29;20122;-84
2021/11/22 00:33:30;;;;;;;3.45;1.40;;;6.90;99.90;;;6.11;100.00;101382.63;4103511;29;20495;-84
2021/11/22 00:35:34;;;;;;;6.55;1.50;;;6.90;99.90;;;6.07;100.00;101382.00;4103554;29;20114;-84
2021/11/22 00:37:38;;;;;;;3.00;1.75;;;6.90;99.90;;;6.12;100.00;101384.31;4104993;28;20027;-84
2021/11/22 00:39:39;;;;;;;4.85;1.75;;;6.90;99.90;;;6.06;100.00;101380.34;4104385;29;20168;-84
2021/11/22 00:41:40;;;;;;;2.20;1.58;;;6.90;99.90;;;5.95;100.00;101371.59;4087333;29;20153;-83
2021/11/22 00:43:41;;;;;;;8.90;2.08;;;6.90;99.90;;;6.05;100.00;101372.59;4103476;28;20027;-85
2021/11/22 00:45:42;;;;;;;1.40;1.27;;;6.90;99.90;;;6.06;100.00;101369.84;4103304;29;20530;-84
2021/11/22 00:47:44;;;;;;;2.90;1.70;;;6.80;99.90;;;6.08;100.00;101373.22;4104481;29;20051;-83
2021/11/22 00:49:45;;;;;;;3.80;1.60;;;6.90;99.90;;;5.95;100.00;101368.97;4103220;29;20027;-83
2021/11/22 00:51:45;;;;;;;4.25;1.70;;;6.90;99.90;;;5.99;100.00;101363.41;4104596;28;20066;-83
2021/11/22 00:53:47;;;;;;;3.90;2.17;;;6.90;99.90;;;6.10;100.00;101370.47;4103022;29;20055;-83
2021/11/22 00:55:49;;;;;;;2.65;1.92;;;7.00;99.90;;;6.11;100.00;101378.22;4103178;29;20059;-83
2021/11/22 00:57:50;;;;;;;3.10;1.63;;;6.90;99.90;;;6.04;100.00;101382.22;4103121;29;20039;-82
2021/11/22 00:59:51;;;;;;;4.57;1.73;;;6.90;99.90;;;6.00;100.00;101379.97;4103162;29;20027;-83
2021/11/22 01:01:52;;;;;;;4.35;1.73;;;6.90;99.90;;;6.02;100.00;101385.91;4104320;28;20050;-83
2021/11/22 01:03:52;;;;;;;3.92;1.75;;;6.90;99.90;;;6.08;100.00;101380.22;4103026;29;20032;-84
2021/11/22 01:05:53;;;;;;;2.90;1.50;;;6.90;99.90;;;5.98;100.00;101371.38;4102510;28;20037;-83
2021/11/22 01:07:54;;;;;;;2.70;1.70;;;6.90;99.90;;;5.99;100.00;101367.81;4102714;29;20082;-84
2021/11/22 01:09:55;;;;;;;2.05;1.50;;;6.90;99.90;;;6.07;100.00;101389.03;4104184;28;20566;-84
2021/11/22 01:11:57;;;;;;;2.42;1.52;;;6.80;99.90;;;5.95;100.00;101380.28;4104117;28;20031;-83
2021/11/22 01:13:58;;;;;;;5.53;1.63;;;6.80;99.90;;;5.91;100.00;101380.63;4102881;29;20058;-83
2021/11/22 01:15:59;;;;;;;3.03;1.40;;;6.80;99.90;;;5.95;100.00;101385.53;4102739;29;20082;-84
2021/11/22 01:18:01;;;;;;;3.22;1.77;;;6.80;99.90;;;5.93;100.00;101386.56;4102766;29;20027;-84
2021/11/22 01:20:06;;;;;;;4.97;1.73;;;6.80;99.90;;;6.00;100.00;101393.06;4086769;29;20035;-83
2021/11/22 01:22:07;;;;;;;3.72;1.70;;;6.70;99.90;;;6.06;100.00;101390.81;4102438;29;20063;-83
2021/11/22 01:24:08;;;;;;;4.30;1.50;;;6.80;99.90;;;6.09;100.00;101395.00;4102538;29;20102;-83
2021/11/22 01:26:09;;;;;;;1.58;1.42;;;6.80;99.90;;;6.07;100.00;101391.66;4103856;28;20557;-84
2021/11/22 01:28:11;;;;;;;4.05;1.95;;;6.70;99.90;;;6.04;100.00;101394.50;4103858;28;20475;-84
2021/11/22 01:30:12;;;;;;;4.75;1.95;;;6.70;99.90;;;6.00;100.00;101396.47;4102594;29;20051;-84
2021/11/22 01:32:13;;;;;;;3.15;1.85;;;6.80;99.90;;;5.97;100.00;101395.91;4103949;28;20027;-84
2021/11/22 01:34:14;;;;;;;3.50;1.67;;;6.70;99.90;;;5.94;100.00;101391.69;4102729;29;20035;-84
2021/11/22 01:36:16;;;;;;;3.55;2.00;;;6.80;99.90;;;6.04;100.00;101405.81;4103681;28;20106;-84
2021/11/22 01:38:17;;;;;;;2.78;1.67;;;6.80;99.90;;;5.90;100.00;101392.03;4103376;29;20027;-85
2021/11/22 01:40:23;;;;;;;3.05;1.73;;;6.80;99.90;;;5.95;100.00;101393.38;4102584;29;20023;-84
2021/11/22 01:42:24;;;;;;;3.88;1.80;;;6.80;99.90;;;5.95;100.00;101409.09;4103760;28;20402;-84
2021/11/22 01:44:25;;;;;;;3.65;1.98;;;6.70;99.90;;;5.91;100.00;101401.56;4102455;29;20086;-84
2021/11/22 01:46:27;;;;;;;2.05;1.40;;;6.70;99.90;;;5.86;100.00;101395.81;4102371;29;20071;-84
2021/11/22 01:48:28;;;;;;;4.13;1.58;;;6.70;99.90;;;5.86;100.00;101401.03;4089890;29;20059;-84
2021/11/22 01:50:29;;;;;;;5.50;1.85;;;6.70;99.90;;;5.94;100.00;101401.34;4102414;28;20059;-84
2021/11/22 01:52:31;;;;;;;3.28;1.48;;;6.70;99.90;;;5.98;100.00;101400.16;4102391;29;20031;-84
2021/11/22 01:54:31;;;;;;;3.28;1.73;;;6.70;99.90;;;6.01;100.00;101413.03;4103153;28;20403;-84
2021/11/22 01:56:32;;;;;;;6.82;1.70;;;6.70;99.90;;;5.91;100.00;101405.00;4102334;29;20095;-85
2021/11/22 01:58:36;;;;;;;6.05;2.40;;;6.70;99.90;;;5.88;100.00;101415.72;4102438;29;20483;-83
2021/11/22 02:00:51;;;;;;;3.75;1.67;;;6.70;99.90;;;5.92;100.00;101418.94;4102391;29;20083;-84
2021/11/22 02:02:53;;;;;;;4.53;1.55;;;6.70;99.90;;;5.91;100.00;101415.47;4102269;29;20039;-86
2021/11/22 02:04:54;;;;;;;4.13;1.83;;;6.70;99.90;;;5.86;100.00;101422.00;4086360;29;20032;-84
2021/11/22 02:06:55;;;;;;;1.77;1.50;;;6.70;99.90;;;6.00;100.00;101427.09;4086383;29;20027;-84
2021/11/22 02:08:56;;;;;;;3.90;1.73;;;6.70;99.90;;;5.87;100.00;101419.28;4103261;29;20039;-83
2021/11/22 02:10:57;;;;;;;3.13;1.55;;;6.70;99.90;;;5.81;100.00;101418.84;4102261;29;20059;-84
2021/11/22 02:12:58;;;;;;;3.25;1.38;;;6.70;99.90;;;5.83;100.00;101411.69;4102429;29;20030;-83
2021/11/22 02:14:59;;;;;;;5.10;1.80;;;6.70;99.90;;;5.92;100.00;101424.16;4103505;28;20114;-83
2021/11/22 02:17:01;;;;;;;3.20;1.40;;;6.70;99.90;;;5.85;100.00;101423.81;4102229;28;20066;-84
2021/11/22 02:19:04;;;;;;;2.50;2.03;;;6.70;99.90;;;5.84;100.00;101437.78;4105021;28;20019;-84
2021/11/22 02:21:05;;;;;;;4.82;2.38;;;6.60;99.90;;;5.83;100.00;101420.41;4105539;29;20048;-83
2021/11/22 02:23:10;;;;;;;3.00;1.80;;;6.70;99.90;;;5.87;100.00;101421.06;4106415;28;20027;-83
2021/11/22 02:25:14;;;;;;;3.13;2.20;;;6.70;99.90;;;5.92;100.00;101439.88;4106614;28;20107;-84
2021/11/22 02:27:15;;;;;;;4.53;2.13;;;6.60;99.90;;;5.81;100.00;101432.78;4106437;28;20031;-82
2021/11/22 02:29:16;;;;;;;5.28;2.42;;;6.60;99.90;;;5.76;100.00;101423.56;4106576;28;20488;-83
2021/11/22 02:31:17;;;;;;;3.60;2.00;;;6.60;99.90;;;5.78;100.00;101426.91;4105284;29;20031;-84
2021/11/22 02:33:23;;;;;;;6.00;1.77;;;6.60;99.90;;;5.81;100.00;101427.53;4105239;29;20419;-84
2021/11/22 02:35:25;;;;;;;3.35;1.60;;;6.60;99.90;;;5.87;100.00;101426.28;4106219;29;20483;-82
2021/11/22 02:37:26;;;;;;;2.05;1.50;;;6.60;99.90;;;5.93;100.00;101441.56;4106465;29;20023;-85
2021/11/22 02:39:27;;;;;;;4.35;1.50;;;6.70;99.90;;;5.87;100.00;101440.22;4106353;28;20046;-83
2021/11/22 02:41:28;;;;;;;3.90;1.85;;;6.70;99.90;;;5.86;100.00;101432.47;4106348;28;20502;-83
2021/11/22 02:43:32;;;;;;;2.40;1.80;;;6.70;99.90;;;5.89;100.00;101445.34;4104966;29;20034;-85
2021/11/22 02:45:33;;;;;;;1.92;1.70;;;6.70;99.90;;;5.91;100.00;101436.41;4089037;29;20043;-85
2021/11/22 02:47:34;;;;;;;2.50;1.63;;;6.70;99.90;;;5.91;100.00;101439.03;4105213;28;20058;-83
2021/11/22 02:49:35;;;;;;;3.40;1.75;;;6.70;99.90;;;6.04;100.00;101446.88;4105084;29;20031;-84
2021/11/22 02:51:38;;;;;;;4.93;1.85;;;6.70;99.90;;;5.99;100.00;101441.13;4106131;28;20039;-84
2021/11/22 02:53:40;;;;;;;1.98;1.60;;;6.70;99.90;;;5.86;100.00;101435.09;4104759;29;20041;-85
2021/11/22 02:55:41;;;;;;;3.90;1.60;;;6.70;99.90;;;5.92;100.00;101445.97;4104977;29;20035;-82
2021/11/22 02:57:42;;;;;;;3.92;1.92;;;6.70;99.90;;;5.94;100.00;101449.28;4104938;29;20059;-83
2021/11/22 02:59:44;;;;;;;3.40;1.48;;;6.70;99.90;;;5.87;100.00;101440.22;4105974;28;20027;-83
2021/11/22 03:01:45;;;;;;;4.95;1.85;;;6.70;99.90;;;5.95;100.00;101456.22;4104962;29;20034;-82
2021/11/22 03:03:46;;;;;;;3.13;1.52;;;6.70;99.90;;;5.86;100.00;101442.94;4104909;29;20442;-85
2021/11/22 03:05:47;;;;;;;3.85;1.85;;;6.70;99.90;;;5.81;100.00;101445.03;4104735;29;20059;-84
2021/11/22 03:07:51;;;;;;;2.55;2.20;;;6.70;99.90;;;5.84;100.00;101450.03;4105669;29;20475;-83
2021/11/22 03:09:52;;;;;;;3.60;2.28;;;6.60;99.90;;;5.83;100.00;101461.44;4104942;29;20031;-83
2021/11/22 03:11:56;;;;;;;4.18;1.58;;;6.70;99.90;;;5.86;100.00;101442.94;4104681;28;20078;-83
2021/11/22 03:13:56;;;;;;;2.05;1.45;;;6.60;99.90;;;5.87;100.00;101453.31;4105935;28;20399;-83
2021/11/22 03:15:59;;;;;;;2.90;1.55;;;6.60;99.90;;;5.86;100.00;101453.41;4104518;29;20062;-83
2021/11/22 03:18:00;;;;;;;2.10;1.60;;;6.60;99.90;;;5.81;100.00;101463.34;4105922;28;20102;-84
2021/11/22 03:20:01;;;;;;;4.35;1.70;;;6.60;99.90;;;5.85;100.00;101462.19;4106081;28;20046;-83
2021/11/22 03:22:03;;;;;;;3.20;1.40;;;6.60;99.90;;;5.87;100.00;101447.25;4104724;29;20019;-83
2021/11/22 03:24:04;;;;;;;3.47;1.75;;;6.50;99.90;;;5.92;100.00;101481.78;4105426;28;20062;-84
2021/11/22 03:26:05;;;;;;;3.85;1.92;;;6.50;99.90;;;5.80;100.00;101475.59;4088594;29;20126;-84
2021/11/22 03:28:07;;;;;;;5.38;1.70;;;6.50;99.90;;;5.82;100.00;101478.97;4105757;28;20479;-84
2021/11/22 03:30:10;;;;;;;4.13;1.50;;;6.50;99.90;;;5.74;100.00;101478.63;4103960;28;20036;-84
2021/11/22 03:32:11;;;;;;;5.22;1.65;;;6.50;99.90;;;5.73;100.00;101465.69;4104402;29;20110;-84
2021/11/22 03:34:13;;;;;;;2.60;2.22;;;6.50;99.90;;;5.67;100.00;101484.41;4105707;29;20042;-84
2021/11/22 03:36:15;;;;;;;5.15;1.75;;;6.40;99.90;;;5.72;100.00;101484.94;4104345;29;20039;-84
2021/11/22 03:38:17;;;;;;;3.05;1.70;;;6.40;99.90;;;5.63;100.00;101475.09;4104156;29;20027;-83
2021/11/22 03:40:18;;;;;;;3.63;1.42;;;6.40;99.90;;;5.62;100.00;101491.72;4088359;29;20031;-83
2021/11/22 03:42:22;;;;;;;2.28;2.08;;;6.40;99.90;;;5.69;100.00;101485.97;4104464;29;20453;-83
2021/11/22 03:44:24;;;;;;;3.55;1.55;;;6.40;99.90;;;5.61;100.00;101492.69;4105598;29;20031;-82
2021/11/22 03:46:26;;;;;;;1.98;1.45;;;6.40;99.90;;;5.63;100.00;101496.03;4104218;29;20482;-83
2021/11/22 03:48:27;;;;;;;6.28;1.95;;;6.30;99.90;;;5.57;100.00;101494.69;4105441;28;20047;-83
2021/11/22 03:50:29;;;;;;;4.63;1.65;;;6.30;99.90;;;5.55;100.00;101494.78;4104310;29;20082;-83
2021/11/22 03:52:29;;;;;;;6.28;1.77;;;6.30;99.90;;;5.56;100.00;101500.84;4104245;29;20058;-84
2021/11/22 03:54:31;;;;;;;2.13;1.90;;;6.20;99.90;;;5.44;100.00;101485.97;4104942;28;20027;-83
2021/11/22 03:56:32;;;;;;;7.53;2.63;;;6.30;99.90;;;5.47;100.00;101506.72;4105247;28;20403;-83
2021/11/22 03:58:33;;;;;;;3.28;1.70;;;6.20;99.90;;;5.49;100.00;101500.47;4104197;29;20039;-84
2021/11/22 04:00:34;;;;;;;3.53;1.85;;;6.20;99.90;;;5.47;100.00;101506.72;4104165;29;20518;-83
2021/11/22 04:02:35;;;;;;;3.38;1.55;;;6.10;99.90;;;5.49;100.00;101516.16;4104046;29;20078;-84
2021/11/22 04:04:36;;;;;;;2.58;1.45;;;6.20;99.90;;;5.33;100.00;101506.81;4103899;29;20027;-83
2021/11/22 04:06:37;;;;;;;6.53;2.40;;;6.20;99.90;;;5.35;100.00;101516.22;4105189;28;20023;-83
2021/11/22 04:08:38;;;;;;;5.93;2.25;;;6.10;99.90;;;5.43;100.00;101516.56;4104903;28;20479;-82
2021/11/22 04:10:39;;;;;;;2.95;2.15;;;6.20;99.90;;;5.41;100.00;101518.44;4104006;29;20030;-85
2021/11/22 04:12:40;;;;;;;6.00;2.67;;;6.10;99.90;;;5.36;100.00;101520.53;4104951;28;20043;-83
2021/11/22 04:14:41;;;;;;;5.05;1.58;;;6.20;99.90;;;5.43;100.00;101526.19;4103766;28;20027;-84
2021/11/22 04:16:42;;;;;;;3.47;2.45;;;6.10;99.90;;;5.46;100.00;101520.75;4103854;29;20102;-82
2021/11/22 04:18:45;;;;;;;5.72;1.95;;;6.10;99.90;;;5.41;100.00;101530.66;4087795;29;20028;-83
2021/11/22 04:20:46;;;;;;;3.10;1.70;;;6.10;99.90;;;5.44;100.00;101522.63;4103615;29;20030;-83
2021/11/22 04:22:47;;;;;;;5.35;1.90;;;6.10;99.90;;;5.53;100.00;101525.44;4104695;29;20159;-83
2021/11/22 04:24:48;;;;;;;3.50;2.10;;;6.10;99.90;;;5.44;100.00;101528.69;4103687;29;20066;-83
2021/11/22 04:26:48;;;;;;;5.25;1.50;;;6.10;99.90;;;5.46;100.00;101537.28;4103653;29;20079;-84
2021/11/22 04:28:49;;;;;;;7.00;1.92;;;6.10;99.90;;;5.39;100.00;101536.03;4104725;28;20031;-83
2021/11/22 04:30:50;;;;;;;5.88;2.10;;;6.30;99.90;;;5.36;100.00;101535.38;4104816;28;20027;-83
2021/11/22 04:32:51;;;;;;;5.10;1.80;;;6.10;99.90;;;5.43;100.00;101540.13;4103653;29;20035;-83
2021/11/22 04:34:52;;;;;;;3.13;1.58;;;6.10;99.90;;;5.42;100.00;101535.81;4104681;28;20036;-82
2021/11/22 04:36:53;;;;;;;5.28;1.70;;;6.10;99.90;;;5.48;100.00;101543.25;4104599;29;20023;-83
2021/11/22 04:38:54;;;;;;;6.20;2.70;;;6.10;99.90;;;5.41;100.00;101543.75;4103255;29;20027;-83
2021/11/22 04:40:55;;;;;;;3.90;1.50;;;6.10;99.90;;;5.36;100.00;101540.63;4102753;28;20573;-84
2021/11/22 04:42:57;;;;;;;3.03;1.98;;;6.10;99.90;;;5.27;100.00;101536.00;4104538;28;20030;-84
2021/11/22 04:44:58;;;;;;;2.45;1.70;;;6.00;99.90;;;5.33;100.00;101546.91;4104466;28;20035;-82
2021/11/22 04:46:59;;;;;;;4.18;2.00;;;6.00;99.90;;;5.31;100.00;101540.94;4103112;29;20050;-82
2021/11/22 04:49:00;;;;;;;6.95;2.08;;;6.00;99.90;;;5.39;100.00;101543.88;4096026;29;20035;-83
2021/11/22 04:51:01;;;;;;;3.65;1.60;;;6.00;99.90;;;5.35;100.00;101544.16;4103337;29;20040;-82
2021/11/22 04:53:04;;;;;;;4.10;1.75;;;6.00;99.90;;;5.38;100.00;101552.66;4104059;28;20482;-85
2021/11/22 04:55:06;;;;;;;4.20;1.58;;;6.00;99.90;;;5.40;100.00;101550.78;4103268;29;20035;-84
2021/11/22 04:57:08;;;;;;;12.82;2.67;;;6.00;99.90;;;5.38;100.00;101549.19;4103332;29;20431;-84
2021/11/22 04:59:09;;;;;;;4.60;1.55;;;6.00;99.90;;;5.30;100.00;101552.34;4103216;29;20518;-83
2021/11/22 05:01:10;;;;;;;6.75;1.70;;;6.00;99.90;;;5.38;100.00;101570.97;4104256;28;20062;-84
2021/11/22 05:03:11;;;;;;;6.65;1.70;;;6.00;99.90;;;5.30;100.00;101556.72;4104398;28;20034;-83
2021/11/22 05:05:14;;;;;;;6.35;1.83;;;6.00;99.90;;;5.35;100.00;101560.69;4103104;29;20031;-84
2021/11/22 05:07:16;;;;;;;4.40;2.00;;;6.00;99.90;;;5.31;100.00;101568.88;4103290;29;20053;-83
2021/11/22 05:09:19;;;;;;;6.57;2.03;;;6.00;99.90;;;5.30;100.00;101556.72;4086780;29;20090;-83
2021/11/22 05:11:20;;;;;;;3.70;1.90;;;6.10;99.90;;;5.41;100.00;101570.75;4104322;28;20091;-82
2021/11/22 05:13:21;;;;;;;5.15;2.08;;;6.00;99.90;;;5.34;100.00;101568.66;4104260;29;20043;-82
2021/11/22 05:15:22;;;;;;;4.88;2.08;;;6.00;99.90;;;5.25;100.00;101572.75;4104121;28;20078;-83
2021/11/22 05:17:23;;;;;;;6.97;2.22;;;6.00;99.90;;;5.22;100.00;101572.94;4102891;29;20114;-83
2021/11/22 05:19:30;;;;;;;4.20;1.75;;;6.00;99.90;;;5.33;100.00;101577.44;4103027;29;20032;-82
2021/11/22 05:21:32;;;;;;;6.65;2.40;;;6.00;99.90;;;5.36;100.00;101572.84;4103036;29;20023;-82
2021/11/22 05:23:33;;;;;;;6.38;2.17;;;6.00;99.90;;;5.35;100.00;101571.16;4102532;28;20023;-83
2021/11/22 05:25:35;;;;;;;7.20;1.85;;;6.00;99.90;;;5.37;100.00;101574.53;4102904;29;20035;-84
2021/11/22 05:27:36;;;;;;;3.25;2.85;;;6.00;99.90;;;5.36;100.00;101572.84;4102950;29;20038;-82
2021/11/22 05:29:37;;;;;;;7.30;1.77;;;6.00;99.90;;;5.44;100.00;101575.78;4104075;29;20118;-83
2021/11/22 05:31:38;;;;;;;5.40;2.65;;;6.00;99.90;;;5.44;100.00;101583.63;4102835;29;20523;-84
2021/11/22 05:33:39;;;;;;;3.55;1.63;;;6.00;99.90;;;5.29;100.00;101574.19;4102721;29;20114;-85
2021/11/22 05:35:40;;;;;;;4.38;1.65;;;6.00;99.90;;;5.35;100.00;101586.88;4104027;28;20040;-85
2021/11/22 05:37:41;;;;;;;8.15;1.92;;;6.00;99.90;;;5.40;100.00;101579.56;4102458;29;20031;-84
2021/11/22 05:39:44;;;;;;;9.05;2.20;;;6.00;99.90;;;5.47;100.00;101603.53;4103929;28;20023;-83
2021/11/22 05:41:44;;;;;;;2.40;1.70;;;6.00;99.90;;;5.38;100.00;101597.13;4086686;29;20036;-84
2021/11/22 05:43:46;;;;;;;5.38;2.05;;;6.00;99.90;;;5.41;100.00;101586.47;4103875;29;20514;-83
2021/11/22 05:45:46;;;;;;;4.13;1.80;;;6.10;99.90;;;5.46;100.00;101605.31;4102523;29;20059;-85
2021/11/22 05:47:49;;;;;;;6.82;2.58;;;6.00;99.90;;;5.41;100.00;101593.47;4102610;29;20042;-83
2021/11/22 05:49:50;;;;;;;6.82;2.58;;;6.00;99.90;;;5.41;100.00;101583.84;4102404;28;20178;-84
2021/11/22 05:51:51;;;;;;;5.57;2.20;;;6.00;99.90;;;5.41;100.00;101588.22;4102623;28;20027;-84
2021/11/22 05:53:53;;;;;;;3.65;1.90;;;6.00;99.90;;;5.37;100.00;101589.41;4103312;28;20154;-84
2021/11/22 05:55:55;;;;;;;4.57;2.45;;;6.00;99.90;;;5.26;100.00;101591.84;4102533;29;20047;-83
2021/11/22 05:57:56;;;;;;;6.38;2.38;;;6.00;99.90;;;5.23;100.00;101585.06;4086536;29;20039;-83
2021/11/22 05:59:57;;;;;;;4.15;2.22;;;6.00;99.90;;;5.23;100.00;101598.13;4118807;28;20023;-84
2021/11/22 06:01:58;;;;;;;8.95;2.97;;;6.00;99.90;;;5.35;100.00;101597.34;4118461;28;20031;-82
2021/11/22 06:03:59;;;;;;;4.32;1.63;;;6.00;99.90;;;5.31;100.00;101587.19;4102500;29;20380;-82
2021/11/22 06:06:01;;;;;;;5.28;2.25;;;6.00;99.90;;;5.39;100.00;101598.81;4103546;28;20036;-82
2021/11/22 06:08:03;;;;;;;4.82;2.05;;;6.10;99.90;;;5.39;100.00;101598.81;4102269;29;20547;-84
2021/11/22 06:10:04;;;;;;;4.72;1.98;;;6.10;99.90;;;5.43;100.00;101594.22;4102495;29;20147;-83
2021/11/22 06:12:06;;;;;;;6.25;2.20;;;6.10;99.90;;;5.36;100.00;101591.16;4102417;29;20035;-85
2021/11/22 06:14:07;;;;;;;8.65;2.30;;;6.10;99.90;;;5.43;100.00;101610.75;4102332;29;20039;-84
2021/11/22 06:16:08;;;;;;;7.82;1.80;;;6.10;99.90;;;5.40;100.00;101591.81;4103542;28;20036;-83
2021/11/22 06:18:10;;;;;;;7.75;2.15;;;6.10;99.90;;;5.43;100.00;101605.53;4103495;28;20030;-83
2021/11/22 06:20:11;;;;;;;6.22;1.85;;;6.10;99.90;;;5.46;100.00;101604.47;4102282;29;20395;-83
2021/11/22 06:22:12;;;;;;;9.02;2.70;;;6.10;99.90;;;5.52;100.00;101607.53;4102185;29;20059;-82
2021/11/22 06:24:15;;;;;;;5.75;2.20;;;6.20;99.90;;;5.51;100.00;101611.09;4102102;29;20023;-83
2021/11/22 06:26:17;;;;;;;6.03;2.38;;;6.20;99.90;;;5.41;100.00;101610.00;4103390;28;20034;-82
2021/11/22 06:28:19;;;;;;;6.20;2.00;;;6.20;99.90;;;5.44;100.00;101617.66;4102264;29;20118;-83
2021/11/22 06:30:22;;;;;;;6.78;4.25;;;6.10;99.90;;;5.47;100.00;101622.69;4103284;28;20034;-83
2021/11/22 06:32:27;;;;;;;5.95;3.00;;;6.10;99.90;;;5.44;100.00;101619.41;4102288;29;20035;-83
2021/11/22 06:34:28;;;;;;;3.97;2.15;;;6.10;99.90;;;5.47;100.00;101620.06;4086659;29;20064;-83
2021/11/22 06:36:29;;;;;;;6.78;2.00;;;6.10;99.90;;;5.48;100.00;101626.13;4102101;29;20027;-83
2021/11/22 06:38:32;;;;;;;5.50;2.10;;;6.20;99.90;;;5.41;100.00;101628.31;4102922;28;20101;-84
2021/11/22 06:40:34;;;;;;;3.17;2.00;;;6.20;99.90;;;5.39;100.00;101634.59;4103412;28;20027;-83
2021/11/22 06:42:36;;;;;;;7.57;2.63;;;6.10;99.90;;;5.38;100.00;101636.38;4102033;29;20042;-83
2021/11/22 06:44:37;;;;;;;6.60;2.53;;;6.20;99.90;;;5.45;100.00;101637.66;4102086;29;20080;-84
2021/11/22 06:46:38;;;;;;;4.75;2.22;;;6.10;99.90;;;5.42;100.00;101635.25;4101804;29;20047;-83
2021/11/22 06:48:39;;;;;;;12.05;2.33;;;6.20;99.90;;;5.37;100.00;101639.94;4106625;28;20516;-84
2021/11/22 06:50:40;;;;;;;10.50;2.40;;;6.10;99.90;;;5.39;100.00;101645.06;4102042;29;20067;-84
2021/11/22 06:52:41;;;;;;;8.20;2.58;;;6.10;99.90;;;5.38;100.00;101646.84;4101831;29;20526;-83
2021/11/22 06:54:42;;;;;;;4.78;2.17;;;6.10;99.90;;;5.29;100.00;101660.50;4102142;29;20027;-83
2021/11/22 06:56:44;;;;;;;6.30;2.88;;;6.10;99.90;;;5.29;100.00;101657.06;4103374;28;20027;-84
2021/11/22 06:58:45;;;;;;;5.22;2.30;;;6.10;99.90;;;5.27;100.00;101657.16;4103286;28;20042;-84
2021/11/22 07:00:46;;;;;;;6.70;2.50;;;6.10;99.90;;;5.27;100.00;101659.78;4101737;28;20027;-83
2021/11/22 07:02:51;;;;;;;10.32;2.85;;;6.10;99.90;;;5.26;100.00;101665.09;4101879;29;20058;-84
2021/11/22 07:04:53;;;;;;;5.72;2.75;;;6.00;99.90;;;5.35;100.00;101670.56;4103390;28;20034;-83
2021/11/22 07:06:53;;;;;;;8.77;2.47;;;6.00;99.90;;;5.34;100.00;101676.78;4104854;29;20036;-82
2021/11/22 07:08:55;;;;;;;6.25;2.55;;;6.00;99.90;;;5.31;100.00;101687.44;4105665;28;20050;-83
2021/11/22 07:10:56;;;;;;;6.68;2.75;;;6.00;99.90;;;5.34;100.00;101674.16;4090299;29;20031;-83
2021/11/22 07:12:57;;;;;;;9.45;3.38;;;6.00;99.90;;;5.29;100.00;101675.38;4106611;28;20023;-83
2021/11/22 07:14:59;;;;;;;5.82;2.78;;;6.00;99.90;;;5.31;100.00;101682.19;4106968;28;20035;-82
2021/11/22 07:17:00;;;;;;;8.50;2.85;;;5.90;99.90;;;5.30;100.00;101690.13;4105869;28;20027;-85
2021/11/22 07:19:01;;;;;;;3.05;2.13;;;5.90;99.90;;;5.24;100.00;101693.16;4105652;29;20035;-82
2021/11/22 07:21:02;;;;;;;6.70;2.50;;;6.00;99.90;;;5.29;100.00;101691.91;4105616;29;20103;-81
2021/11/22 07:23:04;;;;;;;6.35;2.50;;;6.00;99.90;;;5.25;100.00;101700.91;4105177;29;20099;-82
2021/11/22 07:25:05;;;;;;;5.18;2.40;;;5.90;99.90;;;5.23;100.00;101705.38;4105375;29;20039;-82
2021/11/22 07:27:10;;;;;;;7.13;3.05;;;5.90;99.90;;;5.27;100.00;101704.25;4105361;29;20553;-83
2021/11/22 07:29:11;;;;;;;11.65;2.70;;;5.90;99.90;;;5.22;100.00;101706.34;4106719;28;20494;-81
2021/11/22 07:31:12;;;;;;;8.07;2.90;;;6.00;99.90;;;5.23;100.00;101710.59;4105299;29;20054;-78
2021/11/22 07:33:14;;;;;;;9.45;2.55;;;5.90;99.90;;;5.23;100.00;101715.84;4105081;29;20119;-83
2021/11/22 07:35:15;;;;;;;8.32;2.42;;;5.90;99.90;;;5.27;100.00;101716.50;4105231;29;20046;-80
2021/11/22 07:37:16;;;;;;;4.72;2.10;;;6.00;99.90;;;5.32;100.00;101717.03;4106465;28;20480;-80
2021/11/22 07:39:17;;;;;;;9.63;2.10;;;5.90;99.90;;;5.38;100.00;101722.72;4104952;29;20035;-83
2021/11/22 07:41:19;;;;;;;9.68;2.70;;;5.90;99.90;;;5.31;100.00;101726.69;4105357;29;20568;-82
2021/11/22 07:43:20;;;;;;;2.33;2.13;;;6.00;99.90;;;5.26;100.00;101731.34;4089089;29;20095;-82
2021/11/22 07:45:24;;;;;;;6.13;2.95;;;5.90;99.90;;;5.37;100.00;101728.91;4105304;29;20038;-82
2021/11/22 07:47:25;;;;;;;6.20;2.53;;;5.90;99.90;;;5.43;100.00;101745.97;4106185;29;20047;-82
2021/11/22 07:49:26;;;;;;;5.13;2.45;;;5.90;99.90;;;5.35;100.00;101749.06;4106309;28;20027;-82
2021/11/22 07:51:28;;;;;;;5.15;2.15;;;5.90;99.90;;;5.38;100.00;101737.56;4106073;28;20036;-82
2021/11/22 07:53:31;;;;;;;6.32;2.83;;;5.70;99.90;;;5.24;100.00;101729.75;4104945;29;20046;-85
2021/11/22 07:55:33;;;;;;;7.53;2.75;;;5.90;99.90;;;5.34;100.00;101746.56;4105405;29;20036;-82
2021/11/22 07:57:34;;;;;;;8.50;2.78;;;5.90;99.90;;;5.30;100.00;101734.59;4104226;29;20091;-84
2021/11/22 07:59:35;;;;;;;9.05;3.47;;;5.90;99.90;;;5.29;100.00;101741.59;4105217;28;20031;-83
2021/11/22 08:01:36;;;;;;;4.97;2.50;;;6.00;99.90;;;5.35;100.00;101749.06;4105197;29;20038;-81
2021/11/22 08:03:37;;;;;;;5.95;2.47;;;6.00;99.90;;;5.31;100.00;101752.84;4104076;29;20439;-81
2021/11/22 08:05:39;;;;;;;9.13;2.50;;;6.00;99.90;;;5.35;100.00;101748.22;4105293;28;20067;-82
2021/11/22 08:07:41;;;;;;;4.18;2.00;;;6.00;99.90;;;5.31;100.00;101750.22;4104845;28;20042;-80
2021/11/22 08:10:05;;;;;;;5.50;2.28;;;6.00;99.90;;;5.41;100.00;101760.91;4088067;29;20035;-82
2021/11/22 08:12:25;;;;;;;8.05;2.42;;;6.10;99.90;;;5.42;100.00;101760.81;4104147;29;20553;-82
2021/11/22 08:14:26;;;;;;;6.32;2.60;;;6.10;99.90;;;5.44;100.00;101758.09;4103847;28;20422;-81
2021/11/22 08:16:27;;;;;;;7.43;2.28;;;6.10;99.90;;;5.36;100.00;101753.38;4104803;28;20090;-82
2021/11/22 08:18:28;;;;;;;5.85;1.98;;;6.10;99.90;;;5.36;100.00;101761.22;4103951;29;20031;-83
2021/11/22 08:20:30;;;;;;;6.53;1.98;;;6.20;99.90;;;5.45;100.00;101759.78;4105025;28;20074;-83
2021/11/22 08:22:32;;;;;;;7.22;2.30;;;6.10;99.90;;;5.35;100.00;101759.53;4103575;29;20030;-80
2021/11/22 08:24:33;;;;;;;6.05;2.17;;;6.10;99.90;;;5.42;100.00;101765.22;4103845;29;20492;-81
2021/11/22 08:26:34;;;;;;;4.20;2.38;;;6.10;99.90;;;5.49;100.00;101762.13;4103701;29;20054;-80
2021/11/22 08:28:36;;;;;;;4.40;2.15;;;6.10;99.90;;;5.59;100.00;101771.03;4103640;29;20035;-81
2021/11/22 08:30:37;;;;;;;5.05;2.05;;;6.20;99.90;;;5.64;100.00;101770.75;4104853;28;20031;-82
2021/11/22 08:32:41;;;;;;;6.20;2.10;;;6.30;99.90;;;5.70;100.00;101766.91;4103679;29;20526;-82